createdAt,value
2018-07-30T00:00:14.179Z,22.81
2018-07-30T00:02:45.293Z,22.77
2018-07-30T00:05:13.144Z,22.76
2018-07-30T00:07:41.380Z,22.76
2018-07-30T00:10:09.139Z,22.75
2018-07-30T00:12:37.331Z,22.73
2018-07-30T00:15:05.319Z,22.70
2018-07-30T00:17:33.155Z,22.69
2018-07-30T00:20:00.951Z,22.67
2018-07-30T00:22:28.808Z,22.66
2018-07-30T00:24:56.636Z,22.65
2018-07-30T00:27:24.265Z,22.63
2018-07-30T00:29:52.007Z,22.61
2018-07-30T00:32:19.829Z,22.59
2018-07-30T00:34:47.416Z,22.58
2018-07-30T00:37:15.306Z,22.58
2018-07-30T00:39:43.053Z,22.57
2018-07-30T00:42:10.622Z,22.58
2018-07-30T00:44:38.338Z,22.58
2018-07-30T00:47:06.058Z,22.58
2018-07-30T00:49:33.623Z,22.57
2018-07-30T00:52:01.533Z,22.55
2018-07-30T00:54:29.200Z,22.53
2018-07-30T00:56:56.781Z,22.54
2018-07-30T00:59:24.701Z,22.53
2018-07-30T01:01:52.253Z,22.54
2018-07-30T01:04:19.803Z,22.53
2018-07-30T01:06:47.785Z,22.53
2018-07-30T01:09:15.351Z,22.54
2018-07-30T01:11:42.996Z,22.53
2018-07-30T01:14:13.641Z,22.54
2018-07-30T01:16:41.349Z,22.53
2018-07-30T01:19:08.903Z,22.53
2018-07-30T01:21:36.878Z,22.52
2018-07-30T01:24:04.623Z,22.50
2018-07-30T01:26:32.229Z,22.50
2018-07-30T01:29:00.346Z,22.50
2018-07-30T01:31:28.026Z,22.50
2018-07-30T01:33:55.593Z,22.50
2018-07-30T01:36:23.605Z,22.49
2018-07-30T01:38:51.499Z,22.49
2018-07-30T01:41:20.134Z,22.49
2018-07-30T01:43:48.073Z,22.47
2018-07-30T01:46:15.678Z,22.47
2018-07-30T01:48:43.224Z,22.45
2018-07-30T01:51:11.253Z,22.44
2018-07-30T01:53:38.826Z,22.41
2018-07-30T01:56:06.363Z,22.38
2018-07-30T01:58:34.213Z,22.33
2018-07-30T02:01:01.799Z,22.28
2018-07-30T02:03:29.385Z,22.13
2018-07-30T02:05:57.193Z,21.99
2018-07-30T02:08:24.851Z,21.86
2018-07-30T02:10:52.426Z,21.76
2018-07-30T02:13:20.343Z,21.72
2018-07-30T02:15:47.971Z,21.69
2018-07-30T02:18:15.546Z,21.69
2018-07-30T02:20:43.494Z,21.69
2018-07-30T02:23:11.041Z,21.71
2018-07-30T02:25:38.610Z,21.72
2018-07-30T02:28:06.663Z,21.73
2018-07-30T02:30:34.299Z,21.66
2018-07-30T02:33:01.931Z,21.76
2018-07-30T02:35:29.911Z,21.76
2018-07-30T02:37:57.534Z,21.76
2018-07-30T02:40:25.177Z,21.79
2018-07-30T02:42:52.966Z,21.79
2018-07-30T02:45:20.566Z,21.80
2018-07-30T02:47:48.226Z,21.81
2018-07-30T02:50:16.302Z,21.81
2018-07-30T02:52:43.916Z,21.80
2018-07-30T02:55:11.551Z,21.81
2018-07-30T02:57:39.731Z,21.82
2018-07-30T03:00:07.970Z,21.85
2018-07-30T03:02:35.583Z,21.86
2018-07-30T03:05:03.542Z,21.86
2018-07-30T03:07:31.098Z,21.86
2018-07-30T03:09:58.733Z,21.86
2018-07-30T03:12:26.561Z,21.87
2018-07-30T03:14:54.116Z,21.88
2018-07-30T03:17:21.711Z,21.88
2018-07-30T03:19:49.713Z,21.88
2018-07-30T03:22:17.269Z,21.87
2018-07-30T03:24:44.808Z,21.87
2018-07-30T03:27:12.741Z,21.87
2018-07-30T03:29:40.476Z,21.88
2018-07-30T03:32:08.000Z,21.88
2018-07-30T03:34:35.955Z,21.87
2018-07-30T03:37:03.501Z,21.88
2018-07-30T03:39:31.155Z,21.89
2018-07-30T03:41:59.206Z,21.90
2018-07-30T03:44:26.812Z,21.92
2018-07-30T03:46:54.381Z,21.92
2018-07-30T03:49:22.515Z,21.92
2018-07-30T03:51:50.101Z,21.91
2018-07-30T03:54:17.675Z,21.92
2018-07-30T03:56:45.758Z,21.91
2018-07-30T03:59:13.318Z,21.91
2018-07-30T04:01:40.939Z,21.91
2018-07-30T04:04:09.108Z,21.93
2018-07-30T04:06:36.709Z,21.94
2018-07-30T04:09:05.991Z,21.95
2018-07-30T04:11:33.910Z,21.96
2018-07-30T04:14:01.495Z,21.98
2018-07-30T04:16:29.041Z,21.90
2018-07-30T04:18:56.897Z,21.98
2018-07-30T04:21:24.499Z,22.01
2018-07-30T04:23:52.069Z,22.03
2018-07-30T04:26:20.023Z,22.05
2018-07-30T04:28:47.764Z,22.07
2018-07-30T04:31:15.318Z,22.07
2018-07-30T04:33:43.226Z,22.07
2018-07-30T04:36:10.822Z,22.08
2018-07-30T04:38:38.385Z,22.12
2018-07-30T04:41:06.577Z,22.13
2018-07-30T04:43:34.181Z,22.15
2018-07-30T04:46:01.729Z,22.18
2018-07-30T04:48:29.665Z,22.19
2018-07-30T04:50:57.252Z,22.20
2018-07-30T04:53:24.954Z,22.21
2018-07-30T04:55:52.729Z,22.22
2018-07-30T04:58:20.269Z,22.24
2018-07-30T05:00:47.904Z,22.25
2018-07-30T05:03:15.730Z,22.28
2018-07-30T05:05:43.318Z,22.30
2018-07-30T05:08:10.838Z,22.31
2018-07-30T05:10:38.774Z,22.32
2018-07-30T05:13:06.510Z,22.34
2018-07-30T05:15:34.015Z,22.37
2018-07-30T05:18:01.964Z,22.38
2018-07-30T05:20:29.555Z,22.40
2018-07-30T05:22:58.017Z,22.42
2018-07-30T05:25:25.973Z,22.44
2018-07-30T05:27:53.566Z,22.47
2018-07-30T05:30:21.142Z,22.49
2018-07-30T05:32:49.130Z,22.52
2018-07-30T05:35:16.745Z,22.55
2018-07-30T05:37:44.308Z,22.57
2018-07-30T05:40:12.427Z,22.60
2018-07-30T05:42:40.008Z,22.62
2018-07-30T05:45:07.638Z,22.63
2018-07-30T05:47:35.422Z,22.64
2018-07-30T05:50:03.379Z,22.65
2018-07-30T05:52:30.931Z,22.66
2018-07-30T05:54:59.006Z,22.66
2018-07-30T05:57:26.542Z,22.66
2018-07-30T05:59:54.167Z,22.67
2018-07-30T06:02:22.048Z,22.67
2018-07-30T06:04:49.560Z,22.67
2018-07-30T06:07:17.105Z,22.67
2018-07-30T06:09:45.113Z,22.66
2018-07-30T06:12:12.749Z,22.66
2018-07-30T06:14:40.391Z,22.65
2018-07-30T06:17:08.253Z,22.64
2018-07-30T06:19:35.890Z,22.64
2018-07-30T06:22:03.530Z,22.63
2018-07-30T06:24:31.379Z,22.63
2018-07-30T06:26:58.940Z,22.63
2018-07-30T06:29:26.470Z,22.62
2018-07-30T06:31:54.543Z,22.62
2018-07-30T06:34:22.146Z,22.61
2018-07-30T06:36:49.820Z,22.61
2018-07-30T06:39:17.820Z,22.60
2018-07-30T06:41:45.377Z,22.61
2018-07-30T06:44:12.891Z,22.60
2018-07-30T06:46:40.814Z,22.60
2018-07-30T06:49:08.335Z,22.60
2018-07-30T06:51:35.907Z,22.60
2018-07-30T06:54:03.710Z,22.60
2018-07-30T06:56:31.257Z,22.61
2018-07-30T06:58:58.922Z,22.63
2018-07-30T07:01:26.711Z,22.64
2018-07-30T07:03:54.311Z,22.65
2018-07-30T07:06:21.924Z,22.66
2018-07-30T07:08:49.900Z,22.67
2018-07-30T07:11:17.551Z,22.68
2018-07-30T07:13:45.224Z,22.68
2018-07-30T07:16:13.087Z,22.71
2018-07-30T07:18:40.915Z,22.71
2018-07-30T07:21:08.472Z,22.71
2018-07-30T07:23:36.341Z,22.72
2018-07-30T07:26:03.898Z,22.75
2018-07-30T07:28:31.505Z,22.73
2018-07-30T07:30:59.465Z,22.75
2018-07-30T07:33:27.053Z,22.80
2018-07-30T07:35:55.343Z,22.81
2018-07-30T07:38:23.249Z,22.83
2018-07-30T07:40:50.822Z,22.85
2018-07-30T07:43:18.503Z,22.85
2018-07-30T07:45:46.495Z,22.86
2018-07-30T07:48:14.116Z,22.87
2018-07-30T07:50:41.868Z,22.86
2018-07-30T07:53:09.861Z,22.89
2018-07-30T07:55:37.398Z,22.90
2018-07-30T07:58:05.033Z,22.93
2018-07-30T08:00:32.930Z,22.95
2018-07-30T08:03:00.537Z,22.96
2018-07-30T08:05:28.120Z,22.99
2018-07-30T08:07:56.050Z,23.01
2018-07-30T08:10:23.717Z,23.03
2018-07-30T08:12:51.332Z,23.09
2018-07-30T08:15:19.269Z,23.15
2018-07-30T08:17:46.908Z,23.18
2018-07-30T08:20:14.490Z,23.22
2018-07-30T08:22:42.385Z,23.26
2018-07-30T08:25:11.811Z,23.28
2018-07-30T08:27:39.695Z,23.29
2018-07-30T08:30:08.069Z,23.35
2018-07-30T08:32:36.105Z,23.38
2018-07-30T08:35:04.509Z,23.43
2018-07-30T08:37:32.585Z,23.47
2018-07-30T08:40:00.198Z,23.52
2018-07-30T08:42:27.846Z,23.57
2018-07-30T08:44:55.726Z,23.61
2018-07-30T08:47:23.279Z,23.67
2018-07-30T08:49:50.883Z,23.72
2018-07-30T08:52:18.724Z,23.76
2018-07-30T08:54:46.312Z,23.81
2018-07-30T08:57:14.000Z,23.83
2018-07-30T08:59:41.865Z,23.85
2018-07-30T09:02:09.501Z,23.88
2018-07-30T09:04:37.097Z,23.90
2018-07-30T09:07:05.273Z,23.93
2018-07-30T09:09:32.859Z,23.94
2018-07-30T09:12:00.346Z,23.97
2018-07-30T09:14:28.184Z,24.01
2018-07-30T09:16:55.750Z,24.06
2018-07-30T09:19:23.398Z,24.09
2018-07-30T09:21:51.141Z,24.17
2018-07-30T09:24:18.695Z,24.25
2018-07-30T09:26:46.321Z,24.32
2018-07-30T09:29:14.264Z,24.37
2018-07-30T09:31:41.836Z,24.39
2018-07-30T09:34:09.513Z,24.43
2018-07-30T09:36:37.335Z,24.47
2018-07-30T09:39:07.936Z,24.54
2018-07-30T09:41:35.686Z,24.61
2018-07-30T09:44:03.690Z,24.70
2018-07-30T09:46:31.225Z,24.78
2018-07-30T09:48:58.891Z,24.84
2018-07-30T09:51:26.954Z,24.85
2018-07-30T09:53:54.529Z,24.85
2018-07-30T09:56:22.097Z,24.85
2018-07-30T09:58:50.396Z,24.85
2018-07-30T10:01:23.638Z,24.87
2018-07-30T10:03:51.490Z,24.88
2018-07-30T10:06:19.101Z,24.92
2018-07-30T10:08:46.793Z,24.93
2018-07-30T10:11:14.563Z,24.96
2018-07-30T10:13:42.176Z,24.98
2018-07-30T10:16:09.758Z,25.00
2018-07-30T10:18:37.834Z,25.02
2018-07-30T10:21:05.546Z,25.02
2018-07-30T10:23:33.237Z,25.05
2018-07-30T10:26:07.796Z,25.09
2018-07-30T10:28:35.303Z,25.14
2018-07-30T10:31:02.901Z,25.16
2018-07-30T10:33:30.658Z,25.18
2018-07-30T10:35:58.242Z,25.23
2018-07-30T10:38:25.956Z,25.34
2018-07-30T10:40:53.602Z,25.51
2018-07-30T10:43:21.226Z,25.71
2018-07-30T10:45:48.877Z,25.94
2018-07-30T10:48:16.929Z,26.13
2018-07-30T10:50:44.538Z,26.24
2018-07-30T10:53:12.137Z,26.28
2018-07-30T10:55:40.086Z,26.28
2018-07-30T10:58:07.746Z,26.24
2018-07-30T11:00:35.371Z,26.19
2018-07-30T11:03:03.204Z,26.13
2018-07-30T11:05:30.805Z,26.08
2018-07-30T11:07:58.378Z,26.04
2018-07-30T11:10:26.225Z,25.97
2018-07-30T11:12:53.958Z,25.90
2018-07-30T11:15:21.612Z,25.84
2018-07-30T11:17:49.461Z,25.83
2018-07-30T11:20:17.012Z,25.84
2018-07-30T11:22:44.624Z,25.85
2018-07-30T11:25:12.725Z,25.85
2018-07-30T11:27:40.281Z,25.83
2018-07-30T11:30:07.884Z,25.81
2018-07-30T11:32:35.676Z,25.77
2018-07-30T11:35:03.213Z,25.76
2018-07-30T11:37:31.197Z,25.74
2018-07-30T11:39:58.906Z,25.72
2018-07-30T11:42:26.442Z,25.69
2018-07-30T11:44:54.030Z,25.67
2018-07-30T11:47:22.005Z,25.68
2018-07-30T11:49:49.535Z,25.68
2018-07-30T11:52:17.153Z,25.70
2018-07-30T11:54:45.296Z,25.75
2018-07-30T11:57:12.871Z,25.80
2018-07-30T11:59:40.457Z,25.91
2018-07-30T12:02:08.432Z,26.05
2018-07-30T12:04:36.057Z,26.22
2018-07-30T12:07:03.727Z,26.37
2018-07-30T12:09:31.632Z,26.47
2018-07-30T12:11:59.134Z,26.55
2018-07-30T12:14:26.677Z,26.63
2018-07-30T12:16:54.704Z,26.72
2018-07-30T12:19:22.216Z,26.77
2018-07-30T12:22:04.992Z,26.81
2018-07-30T12:24:32.526Z,26.88
2018-07-30T12:27:00.061Z,26.98
2018-07-30T12:29:28.053Z,27.10
2018-07-30T12:31:55.605Z,27.21
2018-07-30T12:34:23.139Z,27.31
2018-07-30T12:36:51.246Z,27.39
2018-07-30T12:39:18.866Z,27.49
2018-07-30T12:41:46.448Z,27.61
2018-07-30T12:44:14.401Z,27.73
2018-07-30T12:46:41.924Z,27.86
2018-07-30T12:49:09.510Z,27.91
2018-07-30T12:51:37.255Z,27.94
2018-07-30T12:54:04.856Z,28.02
2018-07-30T12:56:32.395Z,28.08
2018-07-30T12:59:00.312Z,28.11
2018-07-30T13:01:27.869Z,28.16
2018-07-30T13:03:55.379Z,28.23
2018-07-30T13:06:23.350Z,28.31
2018-07-30T13:08:50.937Z,28.37
2018-07-30T13:11:18.544Z,28.44
2018-07-30T13:13:46.476Z,28.48
2018-07-30T13:16:14.106Z,28.50
2018-07-30T13:18:41.611Z,28.49
2018-07-30T13:21:09.310Z,28.50
2018-07-30T13:23:36.940Z,28.51
2018-07-30T13:26:04.697Z,28.49
2018-07-30T13:28:32.657Z,28.51
2018-07-30T13:31:00.230Z,28.53
2018-07-30T13:33:27.795Z,28.55
2018-07-30T13:35:55.782Z,28.57
2018-07-30T13:38:23.355Z,28.56
2018-07-30T13:40:51.036Z,28.54
2018-07-30T13:43:18.847Z,28.50
2018-07-30T13:45:46.418Z,28.48
2018-07-30T13:48:14.077Z,28.45
2018-07-30T13:50:41.840Z,28.41
2018-07-30T13:53:09.414Z,28.35
2018-07-30T13:55:36.976Z,28.31
2018-07-30T13:58:04.806Z,28.28
2018-07-30T14:00:32.412Z,28.28
2018-07-30T14:02:59.978Z,28.28
2018-07-30T14:05:27.820Z,28.26
2018-07-30T14:07:55.426Z,28.24
2018-07-30T14:10:22.995Z,28.23
2018-07-30T14:12:50.909Z,28.20
2018-07-30T14:15:18.575Z,28.17
2018-07-30T14:17:46.076Z,28.15
2018-07-30T14:20:13.857Z,28.13
2018-07-30T14:22:41.463Z,28.13
2018-07-30T14:25:09.040Z,28.13
2018-07-30T14:27:37.044Z,28.12
2018-07-30T14:30:06.432Z,28.10
2018-07-30T14:32:33.975Z,28.09
2018-07-30T14:35:02.052Z,28.08
2018-07-30T14:37:29.568Z,28.01
2018-07-30T14:39:57.153Z,28.08
2018-07-30T14:42:24.920Z,28.09
2018-07-30T14:44:52.537Z,28.07
2018-07-30T14:47:20.136Z,28.05
2018-07-30T14:49:48.081Z,28.07
2018-07-30T14:52:15.797Z,28.07
2018-07-30T14:54:43.504Z,28.07
2018-07-30T14:57:11.345Z,28.06
2018-07-30T14:59:39.090Z,28.06
2018-07-30T15:04:41.110Z,28.01
2018-07-30T15:07:08.725Z,28.01
2018-07-30T15:09:36.419Z,28.00
2018-07-30T15:12:04.208Z,28.00
2018-07-30T15:14:31.799Z,28.00
2018-07-30T15:16:59.535Z,28.01
2018-07-30T15:19:27.244Z,28.04
2018-07-30T15:21:54.889Z,28.06
2018-07-30T15:24:22.692Z,28.09
2018-07-30T15:26:50.599Z,28.08
2018-07-30T15:29:18.206Z,28.09
2018-07-30T15:31:46.089Z,28.11
2018-07-30T15:34:13.752Z,28.13
2018-07-30T15:36:41.504Z,28.15
2018-07-30T15:39:10.481Z,28.21
2018-07-30T15:41:38.287Z,28.23
2018-07-30T15:44:06.182Z,28.24
2018-07-30T15:46:34.377Z,28.25
2018-07-30T15:49:02.218Z,28.27
2018-07-30T15:51:29.873Z,28.28
2018-07-30T15:53:57.782Z,28.32
2018-07-30T15:56:25.634Z,28.34
2018-07-30T15:58:53.263Z,28.36
2018-07-30T16:01:21.018Z,28.39
2018-07-30T16:03:48.881Z,28.42
2018-07-30T16:06:16.528Z,28.46
2018-07-30T16:08:44.366Z,28.48
2018-07-30T16:11:12.064Z,28.50
2018-07-30T16:13:39.769Z,28.51
2018-07-30T16:16:07.592Z,28.49
2018-07-30T16:18:35.370Z,28.46
2018-07-30T16:21:02.989Z,28.42
2018-07-30T16:23:30.988Z,28.38
2018-07-30T16:25:58.727Z,28.34
2018-07-30T16:28:26.352Z,28.31
2018-07-30T16:30:54.177Z,28.27
2018-07-30T16:33:21.837Z,28.25
2018-07-30T16:35:49.584Z,28.21
2018-07-30T16:38:17.420Z,28.17
2018-07-30T16:40:45.248Z,28.16
2018-07-30T16:43:12.926Z,28.14
2018-07-30T16:45:40.683Z,28.12
2018-07-30T16:48:08.497Z,28.09
2018-07-30T16:50:36.185Z,28.09
2018-07-30T16:53:03.880Z,28.05
2018-07-30T16:55:31.705Z,28.03
2018-07-30T16:57:59.390Z,28.00
2018-07-30T17:00:27.110Z,27.94
2018-07-30T17:02:54.937Z,27.89
2018-07-30T17:05:22.686Z,27.84
2018-07-30T17:07:50.482Z,27.82
2018-07-30T17:10:18.226Z,27.81
2018-07-30T17:12:45.833Z,27.73
2018-07-30T17:15:13.556Z,27.76
2018-07-30T17:17:41.448Z,27.73
2018-07-30T17:20:11.267Z,27.69
2018-07-30T17:22:39.513Z,27.65
2018-07-30T17:25:07.453Z,27.64
2018-07-30T17:27:35.052Z,27.63
2018-07-30T17:30:02.831Z,27.60
2018-07-30T17:32:30.753Z,27.57
2018-07-30T17:34:58.383Z,27.54
2018-07-30T17:37:26.237Z,27.52
2018-07-30T17:39:53.956Z,27.50
2018-07-30T17:42:21.587Z,27.49
2018-07-30T17:44:49.432Z,27.48
2018-07-30T17:47:17.158Z,27.45
2018-07-30T17:49:44.711Z,27.44
2018-07-30T17:52:12.431Z,27.40
2018-07-30T17:54:40.289Z,27.38
2018-07-30T17:57:07.919Z,27.34
2018-07-30T17:59:35.640Z,27.29
2018-07-30T18:02:03.337Z,27.25
2018-07-30T18:04:30.930Z,27.19
2018-07-30T18:06:58.759Z,27.14
2018-07-30T18:09:26.493Z,27.10
2018-07-30T18:11:54.150Z,27.05
2018-07-30T18:14:21.944Z,27.01
2018-07-30T18:16:49.622Z,26.98
2018-07-30T18:19:17.221Z,26.94
2018-07-30T18:21:45.184Z,26.90
2018-07-30T18:24:13.092Z,26.87
2018-07-30T18:26:40.701Z,26.84
2018-07-30T18:29:08.417Z,26.80
2018-07-30T18:31:36.084Z,26.77
2018-07-30T18:34:03.735Z,26.70
2018-07-30T18:36:31.431Z,26.61
2018-07-30T18:38:59.134Z,26.55
2018-07-30T18:41:26.787Z,26.47
2018-07-30T18:43:54.465Z,26.41
2018-07-30T18:46:22.220Z,26.36
2018-07-30T18:48:49.851Z,26.29
2018-07-30T18:51:17.585Z,26.24
2018-07-30T18:53:45.430Z,26.20
2018-07-30T18:56:13.074Z,26.16
2018-07-30T18:58:40.745Z,26.10
2018-07-30T19:01:08.628Z,26.06
2018-07-30T19:03:36.290Z,26.02
2018-07-30T19:06:04.057Z,25.97
2018-07-30T19:08:31.879Z,25.94
2018-07-30T19:10:59.481Z,25.92
2018-07-30T19:13:27.323Z,25.88
2018-07-30T19:15:55.112Z,25.86
2018-07-30T19:18:22.734Z,25.82
2018-07-30T19:20:50.594Z,25.79
2018-07-30T19:23:18.463Z,25.75
2018-07-30T19:25:46.118Z,25.72
2018-07-30T19:28:13.761Z,25.69
2018-07-30T19:30:41.467Z,25.64
2018-07-30T19:33:12.002Z,25.58
2018-07-30T19:35:39.708Z,25.52
2018-07-30T19:38:07.510Z,25.48
2018-07-30T19:40:35.152Z,25.44
2018-07-30T19:43:03.100Z,25.43
2018-07-30T19:45:30.744Z,25.41
2018-07-30T19:47:58.361Z,25.39
2018-07-30T19:50:26.117Z,25.37
2018-07-30T19:52:53.956Z,25.32
2018-07-30T19:55:21.588Z,25.28
2018-07-30T19:57:49.454Z,25.27
2018-07-30T20:00:17.044Z,25.25
2018-07-30T20:02:44.681Z,25.23
2018-07-30T20:05:12.457Z,25.19
2018-07-30T20:07:40.311Z,25.15
2018-07-30T20:10:07.982Z,25.12
2018-07-30T20:12:35.759Z,25.10
2018-07-30T20:15:03.984Z,25.07
2018-07-30T20:17:31.589Z,25.05
2018-07-30T20:19:59.358Z,25.00
2018-07-30T20:22:27.070Z,24.95
2018-07-30T20:24:54.704Z,24.95
2018-07-30T20:27:22.444Z,24.92
2018-07-30T20:29:50.372Z,24.90
2018-07-30T20:32:18.033Z,24.87
2018-07-30T20:34:45.673Z,24.83
2018-07-30T20:37:13.396Z,24.79
2018-07-30T20:39:41.021Z,24.76
2018-07-30T20:42:08.785Z,24.73
2018-07-30T20:44:36.602Z,24.72
2018-07-30T20:47:04.252Z,24.69
2018-07-30T20:49:32.022Z,24.69
2018-07-30T20:51:59.884Z,24.65
2018-07-30T20:54:27.478Z,24.63
2018-07-30T20:56:55.345Z,24.58
2018-07-30T20:59:23.397Z,24.57
2018-07-30T21:01:51.004Z,24.54
2018-07-30T21:04:18.748Z,24.52
2018-07-30T21:06:46.966Z,24.48
2018-07-30T21:09:14.553Z,24.47
2018-07-30T21:11:42.266Z,24.44
2018-07-30T21:14:10.558Z,24.42
2018-07-30T21:16:38.231Z,24.40
2018-07-30T21:19:06.023Z,24.39
2018-07-30T21:21:33.930Z,24.37
2018-07-30T21:24:01.570Z,24.33
2018-07-30T21:26:29.260Z,24.29
2018-07-30T21:28:57.051Z,24.25
2018-07-30T21:31:24.699Z,24.21
2018-07-30T21:33:52.463Z,24.19
2018-07-30T21:36:20.296Z,24.17
2018-07-30T21:38:47.905Z,24.15
2018-07-30T21:41:15.587Z,24.13
2018-07-30T21:43:43.406Z,24.11
2018-07-30T21:46:11.053Z,24.09
2018-07-30T21:48:38.913Z,24.08
2018-07-30T21:51:06.707Z,24.05
2018-07-30T21:53:34.712Z,23.99
2018-07-30T21:56:02.526Z,23.96
2018-07-30T21:58:30.364Z,23.93
2018-07-30T22:00:58.434Z,23.91
2018-07-30T22:03:26.515Z,23.88
2018-07-30T22:05:55.499Z,23.84
2018-07-30T22:08:23.381Z,23.80
2018-07-30T22:10:51.242Z,23.78
2018-07-30T22:13:19.112Z,23.76
2018-07-30T22:15:46.953Z,23.74
2018-07-30T22:18:14.699Z,23.71
2018-07-30T22:20:42.518Z,23.68
2018-07-30T22:23:10.112Z,23.65
2018-07-30T22:25:37.922Z,23.62
2018-07-30T22:28:06.072Z,23.58
2018-07-30T22:30:33.741Z,23.55
2018-07-30T22:33:01.483Z,23.53
2018-07-30T22:35:29.271Z,23.52
2018-07-30T22:37:56.916Z,23.49
2018-07-30T22:40:24.665Z,23.47
2018-07-30T22:42:52.490Z,23.43
2018-07-30T22:45:20.176Z,23.40
2018-07-30T22:47:47.907Z,23.37
2018-07-30T22:50:15.600Z,23.35
2018-07-30T22:52:43.193Z,23.33
2018-07-30T22:55:11.067Z,23.30
2018-07-30T22:58:09.532Z,23.29
2018-07-30T23:00:37.490Z,23.27
2018-07-30T23:03:05.379Z,23.25
2018-07-30T23:05:33.068Z,23.22
2018-07-30T23:08:01.048Z,23.20
2018-07-30T23:10:28.828Z,23.17
2018-07-30T23:12:56.569Z,23.14
2018-07-30T23:15:24.445Z,23.13
2018-07-30T23:17:52.244Z,23.12
2018-07-30T23:20:20.046Z,23.10
2018-07-30T23:22:47.702Z,23.07
2018-07-30T23:25:15.302Z,23.06
2018-07-30T23:27:43.149Z,23.03
2018-07-30T23:30:11.041Z,23.02
2018-07-30T23:32:39.455Z,22.99
2018-07-30T23:35:07.427Z,22.96
2018-07-30T23:37:35.123Z,22.94
2018-07-30T23:40:02.796Z,22.91
2018-07-30T23:42:30.793Z,22.88
2018-07-30T23:44:58.592Z,22.66
2018-07-30T23:47:26.154Z,22.86
2018-07-30T23:49:53.959Z,22.86
2018-07-30T23:52:21.752Z,22.85
2018-07-30T23:54:49.673Z,22.84
2018-07-30T23:57:17.552Z,22.81
2018-07-30T23:59:45.323Z,22.79
